createdAt,value
2019-02-10T00:01:01.143Z,94.80
2019-02-10T00:03:56.117Z,87.03
2019-02-10T00:06:51.226Z,79.03
2019-02-10T00:09:46.254Z,84.23
2019-02-10T00:12:41.866Z,99.97
2019-02-10T00:15:36.989Z,98.87
2019-02-10T00:18:31.725Z,98.70
2019-02-10T00:21:26.912Z,91.43
2019-02-10T00:24:22.011Z,98.83
2019-02-10T00:27:16.793Z,87.20
2019-02-10T00:30:11.811Z,91.30
2019-02-10T00:33:06.766Z,80.53
2019-02-10T00:36:02.062Z,94.77
2019-02-10T00:38:57.138Z,82.65
2019-02-10T00:41:52.018Z,80.27
2019-02-10T00:44:46.870Z,88.60
2019-02-10T00:47:41.455Z,87.20
2019-02-10T00:50:37.874Z,100.15
2019-02-10T00:53:33.029Z,91.05
2019-02-10T00:56:28.184Z,86.85
2019-02-10T00:59:23.344Z,88.90
2019-02-10T01:02:18.491Z,99.40
2019-02-10T01:05:13.822Z,89.70
2019-02-10T01:08:08.968Z,101.20
2019-02-10T01:11:04.122Z,98.60
2019-02-10T01:13:59.047Z,82.95
2019-02-10T01:16:54.585Z,94.17
2019-02-10T01:19:50.127Z,91.22
2019-02-10T01:22:45.189Z,84.23
2019-02-10T01:25:40.049Z,99.70
2019-02-10T01:28:35.510Z,89.97
2019-02-10T01:31:31.141Z,87.63
2019-02-10T01:34:26.159Z,85.57
2019-02-10T01:37:21.292Z,91.77
2019-02-10T01:40:16.398Z,82.55
2019-02-10T01:43:11.552Z,98.80
2019-02-10T01:46:07.055Z,79.47
2019-02-10T01:49:02.373Z,82.00
2019-02-10T01:51:57.445Z,81.87
2019-02-10T01:54:52.786Z,90.00
2019-02-10T01:57:48.176Z,80.77
2019-02-10T02:00:43.414Z,77.30
2019-02-10T02:03:38.006Z,68.00
2019-02-10T02:06:32.963Z,74.35
2019-02-10T02:09:27.647Z,74.75
2019-02-10T02:12:22.694Z,78.10
2019-02-10T02:15:20.662Z,79.60
2019-02-10T02:18:15.578Z,78.70
2019-02-10T02:21:10.628Z,79.27
2019-02-10T02:24:05.850Z,70.12
2019-02-10T02:27:01.050Z,66.40
2019-02-10T02:29:55.779Z,57.48
2019-02-10T02:32:50.503Z,72.35
2019-02-10T02:35:45.310Z,73.93
2019-02-10T02:38:40.375Z,60.23
2019-02-10T02:41:35.019Z,67.00
2019-02-10T02:44:30.030Z,60.30
2019-02-10T02:47:24.909Z,65.03
2019-02-10T02:50:19.501Z,73.92
2019-02-10T02:53:14.776Z,74.97
2019-02-10T02:56:09.833Z,65.55
2019-02-10T02:59:05.579Z,66.20
2019-02-10T03:02:00.518Z,55.93
2019-02-10T03:04:55.514Z,57.23
2019-02-10T03:07:50.649Z,55.43
2019-02-10T03:10:46.031Z,64.22
2019-02-10T03:13:40.814Z,66.33
2019-02-10T03:16:35.820Z,75.28
2019-02-10T03:19:30.864Z,66.40
2019-02-10T03:22:26.051Z,67.72
2019-02-10T03:25:21.404Z,61.88
2019-02-10T03:28:16.297Z,71.82
2019-02-10T03:31:11.418Z,67.00
2019-02-10T03:34:06.630Z,65.83
2019-02-10T03:37:02.333Z,71.60
2019-02-10T03:39:57.811Z,69.70
2019-02-10T03:42:53.378Z,50.10
2019-02-10T03:45:48.821Z,72.62
2019-02-10T03:48:43.728Z,61.53
2019-02-10T03:51:41.809Z,57.35
2019-02-10T03:54:36.849Z,68.72
2019-02-10T03:57:32.844Z,62.65
2019-02-10T04:00:30.789Z,66.65
2019-02-10T04:03:25.617Z,65.50
2019-02-10T04:06:20.716Z,68.37
2019-02-10T04:09:15.839Z,67.00
2019-02-10T04:12:11.907Z,76.22
2019-02-10T04:15:09.486Z,53.10
2019-02-10T04:18:07.637Z,54.48
2019-02-10T04:21:03.373Z,63.63
2019-02-10T04:23:59.702Z,68.33
2019-02-10T04:26:55.143Z,67.87
2019-02-10T04:29:50.771Z,66.57
2019-02-10T04:32:46.102Z,51.77
2019-02-10T04:35:41.864Z,65.50
2019-02-10T04:38:41.291Z,60.78
2019-02-10T04:41:37.711Z,60.60
2019-02-10T04:44:36.927Z,58.55
2019-02-10T04:47:32.346Z,58.95
2019-02-10T04:50:30.603Z,49.25
2019-02-10T04:53:26.210Z,61.75
2019-02-10T04:56:23.075Z,66.17
2019-02-10T04:59:18.674Z,58.48
2019-02-10T05:02:14.829Z,46.85
2019-02-10T05:05:10.211Z,54.70
2019-02-10T05:08:05.728Z,59.33
2019-02-10T05:11:01.541Z,50.40
2019-02-10T05:13:57.274Z,74.17
2019-02-10T05:16:52.990Z,61.60
2019-02-10T05:19:49.316Z,58.70
2019-02-10T05:22:45.257Z,56.75
2019-02-10T05:25:41.488Z,60.33
2019-02-10T05:28:37.289Z,58.30
2019-02-10T05:31:32.649Z,81.95
2019-02-10T05:34:28.153Z,83.15
2019-02-10T05:37:24.091Z,49.67
2019-02-10T05:40:19.405Z,60.05
2019-02-10T05:43:16.210Z,54.33
2019-02-10T05:46:11.036Z,55.92
2019-02-10T05:49:06.785Z,72.27
2019-02-10T05:52:02.708Z,56.48
2019-02-10T05:54:59.150Z,53.60
2019-02-10T05:57:54.688Z,57.83
2019-02-10T06:00:53.090Z,55.30
2019-02-10T06:03:49.103Z,62.65
2019-02-10T06:06:45.108Z,52.93
2019-02-10T06:09:41.057Z,51.80
2019-02-10T06:12:36.879Z,52.38
2019-02-10T06:15:31.827Z,51.95
2019-02-10T06:18:27.601Z,49.15
2019-02-10T06:21:22.826Z,59.50
2019-02-10T06:24:18.237Z,56.20
2019-02-10T06:27:13.817Z,42.93
2019-02-10T06:30:09.633Z,43.23
2019-02-10T06:33:04.856Z,60.40
2019-02-10T06:36:00.656Z,54.53
2019-02-10T06:38:55.815Z,66.82
2019-02-10T06:41:51.225Z,64.60
2019-02-10T06:44:46.942Z,49.27
2019-02-10T06:47:42.318Z,43.75
2019-02-10T06:50:37.460Z,52.98
2019-02-10T06:53:32.472Z,44.42
2019-02-10T06:56:28.294Z,59.18
2019-02-10T06:59:41.071Z,46.08
2019-02-10T07:02:42.348Z,60.48
2019-02-10T07:05:37.041Z,58.63
2019-02-10T07:08:32.164Z,60.83
2019-02-10T07:11:27.784Z,49.48
2019-02-10T07:14:28.401Z,64.42
2019-02-10T07:17:53.907Z,54.27
2019-02-10T07:20:49.462Z,65.05
2019-02-10T07:24:47.838Z,53.40
2019-02-10T07:27:42.589Z,50.43
2019-02-10T07:30:52.270Z,54.42
2019-02-10T07:34:34.886Z,49.98
2019-02-10T07:38:00.100Z,57.35
2019-02-10T07:41:43.027Z,52.53
2019-02-10T07:45:01.717Z,44.75
2019-02-10T07:48:38.387Z,44.90
2019-02-10T07:52:04.445Z,52.27
2019-02-10T07:55:35.145Z,47.58
2019-02-10T07:58:41.398Z,53.50
2019-02-10T08:02:14.188Z,45.23
2019-02-10T08:05:25.305Z,47.17
2019-02-10T08:08:33.738Z,47.08
2019-02-10T08:12:11.603Z,50.03
2019-02-10T08:16:06.815Z,50.05
2019-02-10T08:19:42.136Z,49.25
2019-02-10T08:23:16.051Z,47.08
2019-02-10T08:26:56.774Z,49.30
2019-02-10T08:30:19.765Z,54.38
2019-02-10T08:33:45.120Z,43.08
2019-02-10T08:37:14.935Z,46.02
2019-02-10T08:40:40.349Z,46.95
2019-02-10T08:43:55.816Z,51.18
2019-02-10T08:47:16.931Z,51.45
2019-02-10T08:50:46.567Z,63.87
2019-02-10T08:53:45.191Z,54.80
2019-02-10T08:56:41.221Z,48.42
2019-02-10T08:59:36.462Z,40.88
2019-02-10T09:02:32.149Z,48.78
2019-02-10T09:05:28.066Z,60.95
2019-02-10T09:08:22.841Z,43.55
2019-02-10T09:11:18.009Z,53.83
2019-02-10T09:14:13.681Z,54.85
2019-02-10T09:17:08.876Z,63.35
2019-02-10T09:20:04.349Z,62.62
2019-02-10T09:23:00.075Z,62.98
2019-02-10T09:25:55.502Z,63.05
2019-02-10T09:28:50.663Z,52.88
2019-02-10T09:31:45.989Z,69.62
2019-02-10T09:34:40.848Z,64.32
2019-02-10T09:37:37.118Z,68.22
2019-02-10T09:40:32.357Z,63.33
2019-02-10T09:43:27.512Z,77.40
2019-02-10T09:46:23.294Z,69.82
2019-02-10T09:49:19.838Z,70.75
2019-02-10T09:52:15.890Z,73.95
2019-02-10T09:55:11.824Z,75.67
2019-02-10T09:58:07.727Z,92.57
2019-02-10T10:01:03.344Z,100.40
2019-02-10T10:03:58.871Z,69.72
2019-02-10T10:06:53.916Z,78.30
2019-02-10T10:09:49.775Z,73.95
2019-02-10T10:12:44.470Z,74.37
2019-02-10T10:15:41.210Z,93.27
2019-02-10T10:18:36.500Z,76.62
2019-02-10T10:21:31.630Z,89.25
2019-02-10T10:24:27.105Z,87.05
2019-02-10T10:27:22.019Z,101.05
2019-02-10T10:30:19.555Z,95.87
2019-02-10T10:33:14.204Z,81.40
2019-02-10T10:36:09.247Z,86.78
2019-02-10T10:39:05.241Z,78.62
2019-02-10T10:42:01.697Z,82.47
2019-02-10T10:44:56.482Z,86.90
2019-02-10T10:47:52.191Z,102.45
2019-02-10T10:50:47.380Z,73.30
2019-02-10T10:53:42.698Z,73.35
2019-02-10T10:56:38.219Z,81.20
2019-02-10T10:59:33.563Z,93.72
2019-02-10T11:02:28.425Z,88.55
2019-02-10T11:05:24.402Z,72.05
2019-02-10T11:08:21.060Z,76.62
2019-02-10T11:11:16.647Z,74.10
2019-02-10T11:14:11.615Z,64.58
2019-02-10T11:17:10.369Z,83.30
2019-02-10T11:20:01.602Z,76.22
2019-02-10T11:22:56.183Z,68.10
2019-02-10T11:25:50.692Z,62.08
2019-02-10T11:28:45.533Z,72.45
2019-02-10T11:31:40.446Z,79.47
2019-02-10T11:34:35.443Z,74.80
2019-02-10T11:37:31.135Z,68.85
2019-02-10T11:40:25.247Z,82.10
2019-02-10T11:43:20.754Z,71.80
2019-02-10T11:46:16.133Z,73.28
2019-02-10T11:49:11.147Z,74.97
2019-02-10T11:52:06.117Z,83.37
2019-02-10T11:55:00.751Z,61.15
2019-02-10T11:57:55.363Z,78.22
2019-02-10T12:00:50.370Z,85.83
2019-02-10T12:03:45.675Z,60.50
2019-02-10T12:06:40.536Z,64.05
2019-02-10T12:09:35.218Z,77.00
2019-02-10T12:12:30.078Z,65.72
2019-02-10T12:15:24.869Z,55.15
2019-02-10T12:18:20.154Z,78.22
2019-02-10T12:21:14.959Z,62.05
2019-02-10T12:24:10.213Z,60.40
2019-02-10T12:27:05.089Z,78.72
2019-02-10T12:30:00.737Z,75.05
2019-02-10T12:32:56.824Z,82.82
2019-02-10T12:35:58.181Z,67.65
2019-02-10T12:38:47.663Z,75.05
2019-02-10T12:41:43.188Z,82.60
2019-02-10T12:44:38.528Z,75.05
2019-02-10T12:47:34.455Z,78.83
2019-02-10T12:50:29.577Z,89.47
2019-02-10T12:53:24.178Z,66.62
2019-02-10T12:56:19.232Z,105.07
2019-02-10T12:59:13.662Z,87.60
2019-02-10T13:02:08.639Z,79.87
2019-02-10T13:05:03.455Z,89.55
2019-02-10T13:07:58.667Z,94.60
2019-02-10T13:10:53.599Z,99.85
2019-02-10T13:13:51.617Z,116.65
2019-02-10T13:16:46.418Z,127.10
2019-02-10T13:19:41.146Z,115.92
2019-02-10T13:22:35.988Z,142.72
2019-02-10T13:25:31.248Z,130.63
2019-02-10T13:28:27.770Z,124.35
2019-02-10T13:31:21.332Z,155.87
2019-02-10T13:34:16.412Z,165.68
2019-02-10T13:37:11.807Z,173.43
2019-02-10T13:40:07.245Z,170.15
2019-02-10T13:43:02.328Z,180.63
2019-02-10T13:45:57.276Z,210.55
2019-02-10T13:48:52.115Z,192.30
2019-02-10T13:51:47.644Z,201.88
2019-02-10T13:54:42.566Z,216.42
2019-02-10T13:57:37.674Z,213.82
2019-02-10T14:00:32.228Z,202.00
2019-02-10T14:03:27.270Z,205.15
2019-02-10T14:06:25.163Z,215.55
2019-02-10T14:09:20.084Z,215.47
2019-02-10T14:12:15.402Z,233.85
2019-02-10T14:15:11.426Z,224.70
2019-02-10T14:18:06.352Z,236.00
2019-02-10T14:21:02.566Z,234.37
2019-02-10T14:23:57.280Z,225.00
2019-02-10T14:26:52.473Z,205.20
2019-02-10T14:29:50.711Z,197.25
2019-02-10T14:32:46.410Z,189.55
2019-02-10T14:35:40.945Z,183.90
2019-02-10T14:38:42.753Z,210.55
2019-02-10T14:41:37.854Z,194.60
2019-02-10T14:44:32.655Z,170.30
2019-02-10T14:47:27.793Z,187.47
2019-02-10T14:50:22.649Z,184.65
2019-02-10T14:53:17.359Z,148.82
2019-02-10T14:56:11.876Z,163.95
2019-02-10T14:59:07.087Z,162.72
2019-02-10T15:02:02.290Z,164.95
2019-02-10T15:04:57.151Z,168.57
2019-02-10T15:07:52.026Z,142.75
2019-02-10T15:10:47.475Z,135.32
2019-02-10T15:13:42.589Z,131.95
2019-02-10T15:16:37.959Z,144.22
2019-02-10T15:19:33.401Z,136.40
2019-02-10T15:22:28.376Z,128.38
2019-02-10T15:25:23.148Z,121.15
2019-02-10T15:28:20.206Z,125.30
2019-02-10T15:31:15.344Z,131.63
2019-02-10T15:34:10.560Z,127.87
2019-02-10T15:37:05.423Z,124.80
2019-02-10T15:40:00.660Z,144.97
2019-02-10T15:42:55.982Z,129.65
2019-02-10T15:45:51.333Z,143.93
2019-02-10T15:48:46.414Z,137.50
2019-02-10T15:51:41.292Z,132.80
2019-02-10T15:54:36.673Z,153.25
2019-02-10T15:57:31.747Z,141.55
2019-02-10T16:00:28.733Z,159.37
2019-02-10T16:03:23.631Z,154.70
2019-02-10T16:06:18.436Z,165.35
2019-02-10T16:09:13.139Z,150.65
2019-02-10T16:12:08.176Z,124.18
2019-02-10T16:15:02.988Z,123.55
2019-02-10T16:17:57.819Z,132.78
2019-02-10T16:20:52.532Z,112.37
2019-02-10T16:23:47.031Z,98.03
2019-02-10T16:26:41.767Z,90.40
2019-02-10T16:29:36.577Z,99.65
2019-02-10T16:32:31.191Z,115.03
2019-02-10T16:35:25.889Z,122.72
2019-02-10T16:38:20.669Z,128.30
2019-02-10T16:41:15.231Z,119.05
2019-02-10T16:44:09.817Z,113.20
2019-02-10T16:47:04.639Z,108.67
2019-02-10T16:49:59.287Z,93.67
2019-02-10T16:52:54.251Z,104.25
2019-02-10T16:55:49.415Z,95.30
2019-02-10T16:58:43.984Z,99.65
2019-02-10T17:01:39.085Z,101.60
2019-02-10T17:04:33.664Z,96.42
2019-02-10T17:07:28.228Z,107.97
2019-02-10T17:10:23.647Z,107.55
2019-02-10T17:13:18.411Z,107.47
2019-02-10T17:16:13.349Z,128.40
2019-02-10T17:19:08.602Z,111.72
2019-02-10T17:22:03.334Z,129.07
2019-02-10T17:24:58.044Z,135.55
2019-02-10T17:27:52.601Z,123.15
2019-02-10T17:30:47.745Z,124.70
2019-02-10T17:33:42.711Z,134.50
2019-02-10T17:36:37.527Z,122.02
2019-02-10T17:39:31.988Z,108.55
2019-02-10T17:42:26.535Z,93.15
2019-02-10T17:45:22.782Z,111.50
2019-02-10T17:48:17.703Z,117.37
2019-02-10T17:51:12.524Z,139.10
2019-02-10T17:54:07.338Z,147.02
2019-02-10T17:57:01.949Z,139.32
2019-02-10T17:59:56.906Z,129.30
2019-02-10T18:02:51.951Z,137.82
2019-02-10T18:05:46.873Z,134.35
2019-02-10T18:08:41.690Z,121.80
2019-02-10T18:11:36.513Z,126.53
2019-02-10T18:14:54.703Z,133.63
2019-02-10T18:18:05.673Z,136.18
2019-02-10T18:21:30.936Z,119.40
2019-02-10T18:24:42.065Z,126.82
2019-02-10T18:27:53.704Z,117.10
2019-02-10T18:31:05.049Z,117.33
2019-02-10T18:34:19.976Z,117.87
2019-02-10T18:37:38.501Z,105.85
2019-02-10T18:40:50.065Z,116.80
2019-02-10T18:43:55.611Z,125.45
2019-02-10T18:47:08.756Z,100.82
2019-02-10T18:50:21.203Z,112.08
2019-02-10T18:53:37.888Z,105.30
2019-02-10T18:56:53.425Z,99.03
2019-02-10T19:00:03.088Z,108.30
2019-02-10T19:03:24.928Z,102.40
2019-02-10T19:06:29.151Z,96.85
2019-02-10T19:09:38.813Z,103.87
2019-02-10T19:12:57.820Z,95.30
2019-02-10T19:16:18.999Z,117.42
2019-02-10T19:19:37.146Z,110.48
2019-02-10T19:22:42.566Z,92.75
2019-02-10T19:25:58.529Z,103.27
2019-02-10T19:29:23.046Z,91.57
2019-02-10T19:32:28.277Z,106.55
2019-02-10T19:35:41.001Z,93.20
2019-02-10T19:38:45.613Z,86.82
2019-02-10T19:41:45.903Z,89.77
2019-02-10T19:44:57.387Z,98.05
2019-02-10T19:48:12.630Z,80.47
2019-02-10T19:51:21.861Z,90.38
2019-02-10T19:54:21.574Z,84.75
2019-02-10T19:57:37.370Z,65.95
2019-02-10T20:00:53.031Z,77.15
2019-02-10T20:03:59.588Z,72.75
2019-02-10T20:07:14.399Z,65.25
2019-02-10T20:10:30.305Z,65.35
2019-02-10T20:13:40.836Z,72.92
2019-02-10T20:16:52.320Z,70.50
2019-02-10T20:20:08.150Z,70.30
2019-02-10T20:23:12.586Z,72.70
2019-02-10T20:26:30.622Z,72.20
2019-02-10T20:29:41.873Z,72.70
2019-02-10T20:33:00.306Z,87.80
2019-02-10T20:36:24.978Z,81.37
2019-02-10T20:39:46.732Z,81.45
2019-02-10T20:43:02.374Z,83.47
2019-02-10T20:46:20.147Z,97.57
2019-02-10T20:49:24.590Z,95.35
2019-02-10T20:52:31.288Z,89.00
2019-02-10T20:55:35.445Z,93.92
2019-02-10T20:58:41.366Z,122.33
2019-02-10T21:01:44.849Z,129.45
2019-02-10T21:05:03.299Z,173.53
2019-02-10T21:08:14.288Z,159.67
2019-02-10T21:11:26.893Z,137.10
2019-02-10T21:14:42.597Z,152.97
2019-02-10T21:17:57.806Z,164.28
2019-02-10T21:21:10.616Z,166.77
2019-02-10T21:24:21.244Z,177.15
2019-02-10T21:27:32.937Z,179.65
2019-02-10T21:30:57.717Z,189.03
2019-02-10T21:34:04.082Z,240.40
2019-02-10T21:37:06.400Z,257.83
2019-02-10T21:40:37.482Z,264.47
2019-02-10T21:43:48.578Z,276.37
2019-02-10T21:46:49.942Z,294.35
2019-02-10T21:49:44.871Z,295.45
2019-02-10T21:52:39.945Z,271.43
2019-02-10T21:55:35.264Z,264.93
2019-02-10T21:58:30.613Z,228.30
2019-02-10T22:01:25.728Z,248.22
2019-02-10T22:04:20.371Z,221.15
2019-02-10T22:07:15.304Z,228.30
2019-02-10T22:10:11.586Z,212.08
2019-02-10T22:13:06.556Z,222.65
2019-02-10T22:16:01.339Z,233.50
2019-02-10T22:18:56.303Z,216.17
2019-02-10T22:21:51.435Z,211.87
2019-02-10T22:24:46.095Z,216.78
2019-02-10T22:27:41.016Z,214.82
2019-02-10T22:30:36.108Z,227.75
2019-02-10T22:33:31.231Z,221.28
2019-02-10T22:36:25.827Z,217.00
2019-02-10T22:39:20.422Z,232.60
2019-02-10T22:42:15.378Z,236.92
2019-02-10T22:45:11.174Z,246.45
2019-02-10T22:48:05.968Z,252.40
2019-02-10T22:51:00.500Z,240.47
2019-02-10T22:53:54.724Z,241.90
2019-02-10T22:56:49.677Z,251.47
2019-02-10T22:59:44.862Z,280.85
2019-02-10T23:02:39.470Z,280.18
2019-02-10T23:05:34.269Z,291.80
2019-02-10T23:08:29.010Z,298.97
2019-02-10T23:11:23.708Z,279.48
2019-02-10T23:14:18.717Z,264.10
2019-02-10T23:17:12.998Z,253.18
2019-02-10T23:20:07.351Z,234.92
2019-02-10T23:23:02.257Z,234.85
2019-02-10T23:25:56.941Z,231.10
2019-02-10T23:28:51.919Z,236.62
2019-02-10T23:31:46.747Z,180.63
2019-02-10T23:34:41.439Z,174.87
2019-02-10T23:37:35.873Z,195.45
2019-02-10T23:40:30.464Z,181.67
2019-02-10T23:43:25.336Z,202.68
2019-02-10T23:46:20.828Z,198.82
2019-02-10T23:49:15.732Z,175.55
2019-02-10T23:52:10.591Z,193.00
2019-02-10T23:55:05.122Z,161.07
2019-02-10T23:57:59.796Z,168.47
